Time;durP1;ratioP1;P1;durP2;ratioP2;P2;SDS_P1;SDS_P2;PMS_P1;PMS_P2;Temp;Humidity;BMP_temperature;BMP_pressure;BME280_temperature;BME280_humidity;BME280_pressure;Samples;Min_cycle;Max_cycle;Signal;HPM_P1;HPM_P2
2021/11/16 00:00:46;;;;;;;54.72;19.02;;;5.00;99.90;;;;;;4978585;28;20030;-67
2021/11/16 00:03:13;;;;;;;51.97;19.67;;;5.00;99.90;;;;;;4978342;28;20371;-68
2021/11/16 00:05:41;;;;;;;52.30;20.17;;;4.90;99.90;;;;;;4978944;28;20050;-68
2021/11/16 00:08:09;;;;;;;58.10;21.27;;;5.00;99.90;;;;;;4978959;28;20022;-67
2021/11/16 00:10:38;;;;;;;50.63;19.63;;;4.90;99.90;;;;;;4961560;28;20446;-68
2021/11/16 00:13:13;;;;;;;51.65;19.38;;;5.00;99.90;;;;;;4978778;28;20031;-68
2021/11/16 00:15:42;;;;;;;48.40;19.00;;;4.90;99.90;;;;;;4979047;28;20292;-67
2021/11/16 00:18:11;;;;;;;48.78;19.73;;;4.90;99.90;;;;;;4979886;28;20281;-68
2021/11/16 00:20:44;;;;;;;49.38;20.27;;;4.90;99.90;;;;;;4961617;28;20035;-67
2021/11/16 00:23:21;;;;;;;56.05;19.77;;;4.90;99.90;;;;;;4978559;28;20026;-68
2021/11/16 00:25:55;;;;;;;56.50;19.35;;;4.90;99.90;;;;;;4977455;28;20458;-67
2021/11/16 00:28:23;;;;;;;47.80;17.52;;;4.90;99.90;;;;;;4977594;28;20331;-68
2021/11/16 00:30:53;;;;;;;41.83;17.23;;;4.90;99.90;;;;;;4977872;28;20080;-68
2021/11/16 00:33:21;;;;;;;43.90;17.20;;;4.80;99.90;;;;;;4960956;28;20030;-68
2021/11/16 00:35:50;;;;;;;44.42;16.55;;;4.80;99.90;;;;;;4977446;28;20416;-67
2021/11/16 00:38:19;;;;;;;55.40;18.27;;;4.80;99.90;;;;;;4977596;28;20088;-68
2021/11/16 00:40:49;;;;;;;50.60;19.85;;;4.80;99.90;;;;;;4977863;28;20030;-68
2021/11/16 00:43:16;;;;;;;50.20;17.50;;;4.80;99.90;;;;;;4977647;28;20023;-67
2021/11/16 00:45:46;;;;;;;49.10;19.67;;;4.80;99.90;;;;;;4977804;28;20026;-68
2021/11/16 00:48:16;;;;;;;48.90;19.92;;;4.80;99.90;;;;;;4978097;28;20051;-68
2021/11/16 00:50:49;;;;;;;43.35;18.55;;;4.90;99.90;;;;;;4978234;28;20102;-67
2021/11/16 00:53:16;;;;;;;56.30;18.13;;;4.80;99.90;;;;;;4978496;28;20027;-68
2021/11/16 00:55:43;;;;;;;58.25;19.63;;;4.80;99.90;;;;;;4978887;28;20053;-68
2021/11/16 00:58:11;;;;;;;53.05;20.17;;;4.80;99.90;;;;;;4978548;28;20486;-68
2021/11/16 01:00:39;;;;;;;54.53;22.52;;;4.80;99.90;;;;;;4978306;28;20041;-68
2021/11/16 01:03:07;;;;;;;54.67;19.08;;;4.80;99.90;;;;;;4978196;28;20034;-68
2021/11/16 01:05:34;;;;;;;54.28;19.20;;;4.80;99.90;;;;;;4978424;28;20322;-67
2021/11/16 01:08:01;;;;;;;52.95;18.50;;;4.80;99.90;;;;;;4977930;28;20026;-67
2021/11/16 01:10:28;;;;;;;49.15;17.77;;;4.80;99.90;;;;;;4944340;28;20039;-68
2021/11/16 01:12:57;;;;;;;50.67;17.83;;;4.80;99.90;;;;;;4977336;28;20031;-67
2021/11/16 01:15:24;;;;;;;52.75;18.40;;;4.80;99.90;;;;;;4977809;28;20030;-67
2021/11/16 01:17:55;;;;;;;54.70;18.48;;;4.80;99.90;;;;;;4977209;28;20110;-68
2021/11/16 01:20:23;;;;;;;49.50;17.70;;;4.80;99.90;;;;;;4977082;28;20035;-68
2021/11/16 01:22:56;;;;;;;46.17;17.77;;;4.80;99.90;;;;;;4977388;28;20027;-68
2021/11/16 01:25:26;;;;;;;49.92;16.40;;;4.70;99.90;;;;;;4977417;28;20065;-68
2021/11/16 01:27:59;;;;;;;51.72;15.98;;;4.70;99.90;;;;;;4977107;28;20103;-68
2021/11/16 01:30:31;;;;;;;44.80;16.45;;;4.70;99.90;;;;;;4978384;28;20171;-67
2021/11/16 01:33:05;;;;;;;47.20;17.20;;;4.70;99.90;;;;;;4977859;28;20046;-68
2021/11/16 01:35:38;;;;;;;43.72;16.52;;;4.70;99.90;;;;;;4977748;28;20351;-67
2021/11/16 01:38:09;;;;;;;40.47;16.70;;;4.80;99.90;;;;;;4981013;28;20327;-67
2021/11/16 01:40:39;;;;;;;47.85;16.55;;;4.70;99.90;;;;;;4981379;28;20031;-68
2021/11/16 01:43:09;;;;;;;48.78;16.85;;;4.70;99.90;;;;;;4981360;28;20386;-67
2021/11/16 01:45:38;;;;;;;44.03;16.80;;;4.70;99.90;;;;;;4981340;28;20041;-67
2021/11/16 01:48:06;;;;;;;43.95;16.38;;;4.70;99.90;;;;;;4981247;28;20487;-68
2021/11/16 01:50:36;;;;;;;45.50;16.67;;;4.70;99.90;;;;;;4980389;28;20129;-68
2021/11/16 01:53:04;;;;;;;44.10;16.70;;;4.70;99.90;;;;;;4980414;28;20030;-67
2021/11/16 01:55:32;;;;;;;43.67;15.57;;;4.70;99.90;;;;;;4980210;28;20037;-68
2021/11/16 01:58:00;;;;;;;35.90;15.10;;;4.70;99.90;;;;;;4980430;28;20027;-67
2021/11/16 02:00:39;;;;;;;40.13;14.88;;;4.70;99.90;;;;;;4980143;28;20034;-68
2021/11/16 02:03:08;;;;;;;40.60;15.00;;;4.70;99.90;;;;;;4980470;28;20415;-68
2021/11/16 02:05:50;;;;;;;40.85;16.30;;;4.70;99.90;;;;;;4979991;28;20113;-67
2021/11/16 02:08:19;;;;;;;47.20;16.52;;;4.70;99.90;;;;;;4980173;28;20045;-67
2021/11/16 02:10:48;;;;;;;45.03;15.68;;;4.70;99.90;;;;;;4962762;28;20093;-68
2021/11/16 02:13:20;;;;;;;42.30;15.70;;;4.70;99.90;;;;;;4980477;28;20022;-67
2021/11/16 02:15:50;;;;;;;43.15;15.57;;;4.60;99.90;;;;;;4980665;28;20427;-68
2021/11/16 02:18:18;;;;;;;43.10;16.70;;;4.70;99.90;;;;;;4980818;28;20074;-67
2021/11/16 02:20:47;;;;;;;48.40;17.90;;;4.60;99.90;;;;;;4980812;28;20038;-67
2021/11/16 02:23:17;;;;;;;43.25;16.55;;;4.60;99.90;;;;;;4980737;28;20102;-67
2021/11/16 02:25:45;;;;;;;44.30;17.55;;;4.60;99.90;;;;;;4981204;28;20430;-67
2021/11/16 02:28:17;;;;;;;45.90;17.35;;;4.60;99.90;;;;;;4980774;28;20085;-67
2021/11/16 02:30:46;;;;;;;50.38;17.20;;;4.60;99.90;;;;;;4981030;28;20081;-67
2021/11/16 02:33:14;;;;;;;44.70;17.85;;;4.60;99.90;;;;;;4980159;28;20025;-68
2021/11/16 02:35:43;;;;;;;44.33;19.05;;;4.60;99.90;;;;;;4979440;28;20055;-67
2021/11/16 02:38:10;;;;;;;47.92;17.52;;;4.60;99.90;;;;;;4979473;28;20331;-68
2021/11/16 02:40:38;;;;;;;48.70;17.27;;;4.70;99.90;;;;;;4979703;28;20297;-68
2021/11/16 02:43:06;;;;;;;45.10;17.13;;;4.60;99.90;;;;;;4962499;28;20034;-67
2021/11/16 02:45:34;;;;;;;48.53;17.80;;;4.60;99.90;;;;;;4979297;28;20035;-67
2021/11/16 02:48:11;;;;;;;47.78;16.50;;;4.60;99.90;;;;;;4957918;28;20329;-68
2021/11/16 02:50:47;;;;;;;48.67;19.08;;;4.60;99.90;;;;;;4959782;28;20027;-68
2021/11/16 02:53:17;;;;;;;46.58;17.05;;;4.60;99.90;;;;;;4960142;29;20079;-68
2021/11/16 02:55:45;;;;;;;50.85;16.85;;;4.60;99.90;;;;;;4960192;29;20090;-67
2021/11/16 02:58:15;;;;;;;41.65;16.50;;;4.60;99.90;;;;;;4960806;29;20031;-67
2021/11/16 03:00:48;;;;;;;38.92;15.00;;;4.60;99.90;;;;;;4960710;29;20051;-68
2021/11/16 03:03:16;;;;;;;46.30;17.25;;;4.60;99.90;;;;;;4960892;28;20031;-67
2021/11/16 03:05:43;;;;;;;46.53;16.40;;;4.60;99.90;;;;;;4960794;28;20030;-67
2021/11/16 03:08:22;;;;;;;45.67;17.42;;;4.60;99.90;;;;;;4959558;29;20061;-67
2021/11/16 03:11:00;;;;;;;49.22;16.52;;;4.60;99.90;;;;;;4960436;29;20308;-68
2021/11/16 03:13:32;;;;;;;46.65;18.15;;;4.60;99.90;;;;;;4960640;29;20443;-68
2021/11/16 03:16:00;;;;;;;46.88;17.83;;;4.60;99.90;;;;;;4960102;29;20075;-67
2021/11/16 03:18:28;;;;;;;47.90;16.15;;;4.60;99.90;;;;;;4960102;29;20023;-67
2021/11/16 03:20:55;;;;;;;36.58;15.07;;;4.60;99.90;;;;;;4959410;28;20035;-68
2021/11/16 03:23:24;;;;;;;44.70;16.23;;;4.60;99.90;;;;;;4959519;29;20043;-67
2021/11/16 03:26:01;;;;;;;45.70;15.38;;;4.60;99.90;;;;;;4958428;29;20035;-68
2021/11/16 03:28:32;;;;;;;47.40;16.40;;;4.60;99.90;;;;;;4959527;28;20055;-67
2021/11/16 03:31:20;;;;;;;49.72;17.10;;;4.60;99.90;;;;;;4959160;28;20062;-68
2021/11/16 03:33:50;;;;;;;47.13;17.50;;;4.50;99.90;;;;;;4959150;28;20431;-67
2021/11/16 03:36:21;;;;;;;46.03;16.95;;;4.50;99.90;;;;;;4959160;28;20426;-68
2021/11/16 03:38:49;;;;;;;45.53;16.95;;;4.60;99.90;;;;;;4959717;28;20110;-67
2021/11/16 03:41:17;;;;;;;51.50;17.95;;;4.50;99.90;;;;;;4960191;29;20106;-67
2021/11/16 03:43:47;;;;;;;43.75;16.42;;;4.50;99.90;;;;;;4959970;28;20031;-67
2021/11/16 03:46:14;;;;;;;51.67;17.98;;;4.50;99.90;;;;;;4959775;28;20035;-68
2021/11/16 03:48:42;;;;;;;45.30;17.92;;;4.50;99.90;;;;;;4974894;28;20447;-68
2021/11/16 03:51:10;;;;;;;51.00;17.80;;;4.50;99.90;;;;;;4978880;28;20122;-68
2021/11/16 03:53:37;;;;;;;51.45;17.35;;;4.50;99.90;;;;;;4962101;28;20023;-67
2021/11/16 03:56:07;;;;;;;47.42;17.27;;;4.50;99.90;;;;;;4979194;28;20485;-68
2021/11/16 03:58:36;;;;;;;54.10;17.25;;;4.50;99.90;;;;;;4978627;28;20054;-68
2021/11/16 04:01:06;;;;;;;48.47;17.80;;;4.50;99.90;;;;;;4977667;28;20453;-68
2021/11/16 04:03:37;;;;;;;67.90;25.25;;;4.50;99.90;;;;;;4978541;28;20441;-67
2021/11/16 04:06:06;;;;;;;59.40;22.75;;;4.50;99.90;;;;;;4977780;28;20419;-67
2021/11/16 04:08:34;;;;;;;55.03;20.23;;;4.50;99.90;;;;;;4978121;28;20419;-67
2021/11/16 04:11:02;;;;;;;54.65;19.65;;;4.50;99.90;;;;;;4960699;28;20051;-67
2021/11/16 04:13:30;;;;;;;53.17;19.15;;;4.50;99.90;;;;;;4978082;28;20380;-67
2021/11/16 04:15:58;;;;;;;56.83;18.10;;;4.50;99.90;;;;;;4977754;28;20019;-67
2021/11/16 04:18:25;;;;;;;50.05;17.40;;;4.50;99.90;;;;;;4961300;28;20029;-67
2021/11/16 04:20:55;;;;;;;44.30;15.45;;;4.50;99.90;;;;;;4977796;28;20026;-67
2021/11/16 04:23:24;;;;;;;44.70;16.70;;;4.50;99.90;;;;;;4978603;28;20109;-67
2021/11/16 04:25:53;;;;;;;44.58;16.13;;;4.50;99.90;;;;;;4979561;28;20062;-68
2021/11/16 04:28:21;;;;;;;50.47;16.27;;;4.50;99.90;;;;;;4978804;28;20031;-68
2021/11/16 04:30:50;;;;;;;46.25;18.38;;;4.50;99.90;;;;;;4978808;28;20114;-68
2021/11/16 04:33:19;;;;;;;46.75;17.10;;;4.50;99.90;;;;;;4979107;28;20023;-67
2021/11/16 04:35:48;;;;;;;46.30;17.45;;;4.50;99.90;;;;;;4978442;28;20420;-67
2021/11/16 04:38:16;;;;;;;47.05;16.80;;;4.50;99.90;;;;;;4978652;28;20031;-67
2021/11/16 04:40:51;;;;;;;46.90;15.15;;;4.50;99.90;;;;;;4978517;28;20034;-67
2021/11/16 04:43:23;;;;;;;47.60;16.83;;;4.50;99.90;;;;;;4978160;28;20030;-67
2021/11/16 04:45:55;;;;;;;39.35;15.32;;;4.50;99.90;;;;;;4977336;28;20038;-67
2021/11/16 04:54:30;;;;;;;45.60;17.13;;;4.50;99.90;;;;;;4937294;29;20070;-67
2021/11/16 04:59:53;;;;;;;45.47;14.35;;;4.40;99.90;;;;;;4977655;28;20081;-68
2021/11/16 05:02:39;;;;;;;;;;;4.50;99.90;;;;;;4977598;28;20046;-68
2021/11/16 05:05:11;;;;;;;43.45;14.13;;;4.40;99.90;;;;;;4978212;28;19913;-68
2021/11/16 05:07:45;;;;;;;41.08;14.30;;;4.40;99.90;;;;;;4978457;28;20027;-67
2021/11/16 05:10:13;;;;;;;45.42;16.52;;;4.50;99.90;;;;;;4978124;28;20103;-67
2021/11/16 05:12:40;;;;;;;40.83;14.43;;;4.50;99.90;;;;;;4981152;28;20023;-68
2021/11/16 05:15:16;;;;;;;45.00;15.07;;;4.50;99.90;;;;;;4982135;28;20023;-67
2021/11/16 05:17:47;;;;;;;46.00;16.25;;;4.50;99.90;;;;;;4964814;28;20027;-67
2021/11/16 05:20:17;;;;;;;46.60;17.58;;;4.40;99.90;;;;;;4981676;28;20335;-67
2021/11/16 05:22:47;;;;;;;51.25;17.08;;;4.50;99.90;;;;;;4964719;28;20459;-67
2021/11/16 05:25:15;;;;;;;45.33;16.25;;;4.40;99.90;;;;;;4981360;28;20367;-67
2021/11/16 05:27:43;;;;;;;45.10;16.20;;;4.40;99.90;;;;;;4980760;28;20027;-68
2021/11/16 05:30:13;;;;;;;48.83;16.25;;;4.40;99.90;;;;;;4980627;28;20038;-68
2021/11/16 05:32:41;;;;;;;47.10;16.02;;;4.40;99.90;;;;;;4981261;28;20358;-67
2021/11/16 05:35:11;;;;;;;45.70;16.25;;;4.40;99.90;;;;;;4981032;28;20102;-67
2021/11/16 05:37:40;;;;;;;39.78;15.15;;;4.40;99.90;;;;;;4980666;28;20106;-67
2021/11/16 05:40:09;;;;;;;45.88;16.30;;;4.40;99.90;;;;;;4963417;28;20335;-67
2021/11/16 05:42:36;;;;;;;37.58;13.55;;;4.40;99.90;;;;;;4980482;28;20030;-69
2021/11/16 05:45:04;;;;;;;41.80;16.02;;;4.40;99.90;;;;;;4963683;28;20027;-69
2021/11/16 05:47:33;;;;;;;44.00;16.30;;;4.40;99.90;;;;;;4980911;28;20105;-68
2021/11/16 05:50:01;;;;;;;42.92;16.90;;;4.40;99.90;;;;;;4981285;28;20027;-68
2021/11/16 05:52:28;;;;;;;40.95;15.00;;;4.40;99.90;;;;;;4981319;28;20023;-67
2021/11/16 05:54:55;;;;;;;40.08;15.10;;;4.40;99.90;;;;;;4964920;28;20074;-68
2021/11/16 05:57:23;;;;;;;40.53;17.63;;;4.40;99.90;;;;;;4981047;28;20030;-68
2021/11/16 05:59:51;;;;;;;45.40;16.48;;;4.40;99.90;;;;;;4964522;28;20031;-67
2021/11/16 06:02:18;;;;;;;38.47;14.25;;;4.40;99.90;;;;;;4963930;28;20437;-67
2021/11/16 06:04:46;;;;;;;39.90;14.57;;;4.50;99.90;;;;;;4980857;28;20027;-67
2021/11/16 06:07:13;;;;;;;34.72;12.98;;;4.50;99.90;;;;;;4981110;28;20072;-67
2021/11/16 06:09:43;;;;;;;37.88;13.13;;;4.40;99.90;;;;;;4980028;28;20026;-68
2021/11/16 06:12:12;;;;;;;38.97;14.35;;;4.40;99.90;;;;;;4979876;28;20023;-68
2021/11/16 06:14:39;;;;;;;32.15;12.32;;;4.40;99.90;;;;;;4979922;28;20022;-67
2021/11/16 06:17:07;;;;;;;35.33;12.85;;;4.40;99.90;;;;;;4979739;28;20105;-67
2021/11/16 06:19:36;;;;;;;36.60;14.35;;;4.40;99.90;;;;;;4979863;28;20419;-67
2021/11/16 06:22:13;;;;;;;30.98;12.38;;;4.40;99.90;;;;;;4980028;28;20046;-67
2021/11/16 06:24:41;;;;;;;33.20;12.57;;;4.40;99.90;;;;;;4962576;28;20430;-67
2021/11/16 06:27:08;;;;;;;31.10;12.60;;;4.40;99.90;;;;;;4980026;28;20023;-67
2021/11/16 06:29:36;;;;;;;32.92;11.98;;;4.40;99.90;;;;;;4962671;28;20023;-67
2021/11/16 06:32:06;;;;;;;28.45;11.65;;;4.40;99.90;;;;;;4981140;28;20415;-67
2021/11/16 06:34:35;;;;;;;36.28;11.90;;;4.40;99.90;;;;;;4980707;28;20023;-67
2021/11/16 06:37:03;;;;;;;39.83;14.85;;;4.30;99.90;;;;;;4980886;28;20027;-67
2021/11/16 06:39:31;;;;;;;33.88;12.88;;;4.40;99.90;;;;;;4981585;28;20299;-68
2021/11/16 06:42:01;;;;;;;35.38;14.00;;;4.40;99.90;;;;;;4981016;28;20023;-69
2021/11/16 06:44:29;;;;;;;35.55;14.10;;;4.40;99.90;;;;;;4964467;28;20070;-67
2021/11/16 06:46:58;;;;;;;35.33;12.90;;;4.40;99.90;;;;;;4980092;28;20054;-68
2021/11/16 06:49:25;;;;;;;35.42;12.90;;;4.40;99.90;;;;;;4980193;28;20415;-67
2021/11/16 06:51:56;;;;;;;34.03;12.75;;;4.40;99.90;;;;;;4980433;28;20404;-67
2021/11/16 06:54:26;;;;;;;39.92;13.73;;;4.40;99.90;;;;;;4979327;28;20411;-67
2021/11/16 06:56:55;;;;;;;39.90;13.82;;;4.40;99.90;;;;;;4979246;28;20033;-67
2021/11/16 06:59:24;;;;;;;37.20;13.77;;;4.40;99.90;;;;;;4979259;28;20015;-67
2021/11/16 07:01:53;;;;;;;39.45;14.75;;;4.40;99.90;;;;;;4979147;28;20027;-68
2021/11/16 07:04:21;;;;;;;37.75;13.85;;;4.40;99.90;;;;;;4979317;28;20431;-67
2021/11/16 07:06:51;;;;;;;37.75;14.55;;;4.40;99.90;;;;;;4979583;28;20026;-69
2021/11/16 07:09:21;;;;;;;42.15;16.75;;;4.40;99.90;;;;;;4979062;28;20157;-68
2021/11/16 07:11:53;;;;;;;35.53;14.40;;;4.40;99.90;;;;;;4979159;28;20030;-69
2021/11/16 07:14:36;;;;;;;36.88;15.65;;;4.40;99.90;;;;;;4980394;28;20296;-68
2021/11/16 07:17:08;;;;;;;41.90;16.80;;;4.40;99.90;;;;;;4980172;28;20022;-68
2021/11/16 07:19:40;;;;;;;33.83;14.13;;;4.40;99.90;;;;;;4962446;28;20077;-67
2021/11/16 07:22:12;;;;;;;32.65;13.60;;;4.40;99.90;;;;;;4979431;28;20026;-70
2021/11/16 07:25:02;;;;;;;40.65;16.65;;;4.40;99.90;;;;;;4980345;28;20030;-70
2021/11/16 07:27:46;;;;;;;37.30;14.93;;;4.40;99.90;;;;;;4965419;28;20058;-69
2021/11/16 07:30:18;;;;;;;31.23;12.40;;;4.40;99.90;;;;;;4979783;28;20038;-70
2021/11/16 07:32:48;;;;;;;37.83;13.75;;;4.40;99.90;;;;;;4979431;28;20027;-68
2021/11/16 07:35:18;;;;;;;38.10;13.98;;;4.40;99.90;;;;;;4978061;28;20022;-70
2021/11/16 07:37:50;;;;;;;48.65;16.85;;;4.40;99.90;;;;;;4978353;28;20023;-69
2021/11/16 07:40:20;;;;;;;39.72;14.90;;;4.40;99.90;;;;;;4978942;28;20097;-70
2021/11/16 07:42:56;;;;;;;30.30;11.82;;;4.40;99.90;;;;;;4961518;28;20033;-70
2021/11/16 07:45:44;;;;;;;39.38;14.35;;;4.40;99.90;;;;;;4978878;28;20054;-71
2021/11/16 07:48:24;;;;;;;36.33;12.75;;;4.40;99.90;;;;;;4978776;28;20475;-69
2021/11/16 07:51:02;;;;;;;29.85;11.85;;;4.40;99.90;;;;;;4961007;28;20039;-68
2021/11/16 07:53:34;;;;;;;27.58;12.18;;;4.40;99.90;;;;;;4978922;28;20057;-70
2021/11/16 07:56:06;;;;;;;35.25;13.45;;;4.40;99.90;;;;;;4978880;28;20098;-70
2021/11/16 07:58:53;;;;;;;33.10;13.00;;;4.40;99.90;;;;;;4979448;28;20106;-69
2021/11/16 08:01:56;;;;;;;30.65;11.00;;;4.40;99.90;;;;;;4978903;28;20463;-68
2021/11/16 08:09:42;;;;;;;29.30;12.20;;;4.40;99.90;;;;;;4979161;28;20423;-68
2021/11/16 08:14:58;;;;;;;25.38;11.85;;;4.40;99.90;;;;;;4979082;28;20074;-69
2021/11/16 08:17:26;;;;;;;31.40;11.30;;;4.40;99.90;;;;;;4960868;28;20027;-69
2021/11/16 08:20:06;;;;;;;34.63;12.73;;;4.40;99.90;;;;;;4978311;28;20050;-69
2021/11/16 08:22:35;;;;;;;27.80;11.65;;;4.40;99.90;;;;;;4977596;28;20432;-69
2021/11/16 08:25:03;;;;;;;29.40;12.80;;;4.40;99.90;;;;;;4977923;28;20035;-68
2021/11/16 08:27:49;;;;;;;32.03;12.40;;;4.40;99.90;;;;;;4977679;28;20040;-69
2021/11/16 08:30:23;;;;;;;32.63;12.07;;;4.40;99.90;;;;;;4960611;28;20022;-69
2021/11/16 08:32:57;;;;;;;37.15;12.98;;;4.40;99.90;;;;;;4977603;28;20026;-69
2021/11/16 08:35:26;;;;;;;33.90;12.60;;;4.40;99.90;;;;;;4978439;28;20023;-68
2021/11/16 08:38:00;;;;;;;36.50;13.05;;;4.40;99.90;;;;;;4977704;28;20094;-68
2021/11/16 08:40:33;;;;;;;35.22;13.82;;;4.40;99.90;;;;;;4978738;28;20138;-69
2021/11/16 08:43:14;;;;;;;36.78;12.77;;;4.50;99.90;;;;;;4978434;28;20038;-70
2021/11/16 08:45:51;;;;;;;31.38;12.13;;;4.50;99.90;;;;;;4978271;28;20515;-69
2021/11/16 08:48:22;;;;;;;32.20;12.98;;;4.50;99.90;;;;;;4981813;28;20438;-69
2021/11/16 08:51:12;;;;;;;29.38;12.35;;;4.50;99.90;;;;;;4982321;28;20382;-69
2021/11/16 08:53:43;;;;;;;31.75;12.38;;;4.50;99.90;;;;;;4982131;28;20038;-69
2021/11/16 08:56:17;;;;;;;30.20;12.57;;;4.50;99.90;;;;;;4982351;28;20443;-69
2021/11/16 08:58:45;;;;;;;33.13;12.93;;;4.50;99.90;;;;;;4982250;28;20102;-69
2021/11/16 09:01:14;;;;;;;25.90;11.10;;;4.50;99.90;;;;;;4981558;28;20027;-69
2021/11/16 09:03:47;;;;;;;27.67;10.18;;;4.50;99.90;;;;;;4981338;28;20037;-69
2021/11/16 09:06:20;;;;;;;30.42;10.48;;;4.60;99.90;;;;;;4964870;28;20023;-69
2021/11/16 09:09:01;;;;;;;27.73;11.48;;;4.60;99.90;;;;;;4981410;28;20030;-69
2021/11/16 09:11:29;;;;;;;28.98;11.38;;;4.60;99.90;;;;;;4981660;28;20036;-69
2021/11/16 09:13:57;;;;;;;31.02;12.63;;;4.60;99.90;;;;;;4981481;28;20312;-69
2021/11/16 09:16:28;;;;;;;28.10;11.68;;;4.60;99.90;;;;;;4981737;28;20031;-69
2021/11/16 09:18:58;;;;;;;26.88;11.38;;;4.60;99.90;;;;;;4981034;28;20026;-69
2021/11/16 09:21:40;;;;;;;31.00;13.07;;;4.60;99.90;;;;;;4981612;28;20474;-70
2021/11/16 09:24:13;;;;;;;33.15;13.00;;;4.60;99.90;;;;;;4964648;28;20457;-70
2021/11/16 09:29:23;;;;;;;31.13;11.27;;;4.60;99.90;;;;;;4981977;28;20453;-71
2021/11/16 09:31:57;;;;;;;26.75;10.98;;;4.60;99.90;;;;;;4982264;28;20034;-72
2021/11/16 09:34:36;;;;;;;29.15;12.70;;;4.60;99.90;;;;;;4981568;28;20030;-72
2021/11/16 09:37:13;;;;;;;31.85;12.48;;;4.60;99.90;;;;;;4981569;28;20031;-71
2021/11/16 09:39:50;;;;;;;33.40;14.45;;;4.60;99.90;;;;;;4982526;28;20094;-72
2021/11/16 09:42:27;;;;;;;35.67;13.70;;;4.60;99.90;;;;;;4981119;28;20023;-72
2021/11/16 09:45:07;;;;;;;40.88;16.38;;;4.60;99.90;;;;;;4980747;28;20094;-70
2021/11/16 09:47:40;;;;;;;53.50;18.73;;;4.70;99.90;;;;;;4980771;28;20050;-70
2021/11/16 09:50:17;;;;;;;52.30;17.50;;;4.70;99.90;;;;;;4980132;28;20030;-69
2021/11/16 09:52:48;;;;;;;51.25;17.98;;;4.70;99.90;;;;;;4980305;28;20030;-69
2021/11/16 09:55:34;;;;;;;44.08;15.90;;;4.70;99.90;;;;;;4980504;28;20487;-69
2021/11/16 09:58:06;;;;;;;27.42;12.43;;;4.70;99.90;;;;;;4980304;28;20023;-69
2021/11/16 10:00:36;;;;;;;32.88;13.15;;;4.70;99.90;;;;;;4980259;28;20106;-69
2021/11/16 10:03:15;;;;;;;25.70;10.85;;;4.70;99.90;;;;;;4963356;28;20031;-70
2021/11/16 10:05:53;;;;;;;25.80;9.38;;;4.70;99.90;;;;;;4963738;28;20435;-69
2021/11/16 10:08:25;;;;;;;24.08;9.70;;;4.70;99.90;;;;;;4981185;28;20038;-70
2021/11/16 10:10:58;;;;;;;28.75;11.23;;;4.70;99.90;;;;;;4980960;28;20030;-69
2021/11/16 10:13:29;;;;;;;25.20;10.73;;;4.60;99.90;;;;;;4981137;28;20086;-69
2021/11/16 10:16:00;;;;;;;29.33;12.50;;;4.60;99.90;;;;;;4963668;28;20023;-69
2021/11/16 10:18:31;;;;;;;25.92;10.60;;;4.60;99.90;;;;;;4980967;28;20372;-70
2021/11/16 10:21:00;;;;;;;22.58;9.90;;;4.60;99.90;;;;;;4980836;28;20423;-69
2021/11/16 10:23:41;;;;;;;23.25;9.80;;;4.60;99.90;;;;;;4981155;28;20018;-70
2021/11/16 10:26:09;;;;;;;30.75;11.10;;;4.60;99.90;;;;;;4979851;28;20126;-69
2021/11/16 10:28:42;;;;;;;24.70;10.48;;;4.60;99.90;;;;;;4980114;28;20027;-70
2021/11/16 10:31:10;;;;;;;26.10;11.25;;;4.60;99.90;;;;;;4979718;28;20110;-70
2021/11/16 10:33:44;;;;;;;31.13;12.23;;;4.60;99.90;;;;;;4962742;28;20031;-70
2021/11/16 10:36:14;;;;;;;37.67;13.98;;;4.60;99.90;;;;;;4979591;28;20027;-68
2021/11/16 10:38:45;;;;;;;28.38;11.65;;;4.60;99.90;;;;;;4979574;28;20058;-71
2021/11/16 10:41:21;;;;;;;23.80;10.20;;;4.70;99.90;;;;;;4979843;28;20106;-70
2021/11/16 10:43:58;;;;;;;29.08;11.18;;;4.70;99.90;;;;;;4979905;28;20062;-71
2021/11/16 10:46:29;;;;;;;24.10;10.32;;;4.70;99.90;;;;;;4980132;28;20053;-71
2021/11/16 10:48:59;;;;;;;27.35;11.48;;;4.70;99.90;;;;;;4959829;29;20047;-71
2021/11/16 10:51:29;;;;;;;24.52;11.18;;;4.70;99.90;;;;;;4960876;28;20111;-71
2021/11/16 10:53:58;;;;;;;27.33;12.00;;;4.80;99.90;;;;;;4961142;29;20031;-69
2021/11/16 10:56:31;;;;;;;32.10;12.55;;;4.70;99.90;;;;;;4961089;29;20050;-68
2021/11/16 10:59:13;;;;;;;30.27;11.02;;;4.80;99.90;;;;;;4960202;29;20026;-70
2021/11/16 11:01:55;;;;;;;30.20;11.50;;;4.80;99.90;;;;;;4960707;29;20035;-70
2021/11/16 11:04:25;;;;;;;34.70;11.68;;;4.80;99.90;;;;;;4960875;28;20110;-70
2021/11/16 11:06:54;;;;;;;26.80;11.07;;;4.80;99.90;;;;;;4960469;28;20066;-70
2021/11/16 11:09:24;;;;;;;27.98;12.88;;;4.80;99.90;;;;;;4957749;28;20062;-69
2021/11/16 11:11:54;;;;;;;27.90;11.48;;;4.80;99.90;;;;;;4959637;29;20038;-70
2021/11/16 11:14:33;;;;;;;24.23;11.23;;;4.80;99.90;;;;;;4959896;29;20015;-70
2021/11/16 11:17:06;;;;;;;24.83;9.68;;;4.80;99.90;;;;;;4960168;29;20040;-71
2021/11/16 11:19:38;;;;;;;19.27;9.23;;;4.70;99.90;;;;;;4959663;28;20027;-69
2021/11/16 11:22:23;;;;;;;25.65;10.63;;;4.70;99.90;;;;;;4959479;28;20031;-70
2021/11/16 11:25:06;;;;;;;20.88;9.10;;;4.70;99.90;;;;;;4959308;29;20034;-69
2021/11/16 11:27:55;;;;;;;23.83;10.13;;;4.80;99.90;;;;;;4959275;28;20360;-68
2021/11/16 11:30:24;;;;;;;22.90;8.82;;;4.80;99.90;;;;;;4959867;28;20308;-69
2021/11/16 11:32:54;;;;;;;16.95;8.35;;;4.80;99.90;;;;;;4960639;29;20023;-69
2021/11/16 11:35:27;;;;;;;22.50;8.73;;;4.80;99.90;;;;;;4960052;28;20417;-69
2021/11/16 11:38:13;;;;;;;23.75;9.52;;;4.80;99.90;;;;;;4960065;28;20024;-69
2021/11/16 11:40:41;;;;;;;19.17;8.65;;;4.90;99.90;;;;;;4960769;28;20063;-69
2021/11/16 11:43:18;;;;;;;14.63;6.72;;;4.90;99.90;;;;;;4960301;28;20035;-68
2021/11/16 11:45:48;;;;;;;18.40;8.13;;;4.90;99.90;;;;;;4959977;28;20023;-68
2021/11/16 11:48:27;;;;;;;22.88;8.75;;;4.90;99.90;;;;;;4970506;28;20053;-68
2021/11/16 11:51:01;;;;;;;19.33;7.65;;;4.90;99.90;;;;;;4978052;28;20035;-68
2021/11/16 11:53:32;;;;;;;18.50;7.65;;;5.00;99.90;;;;;;4978307;28;20050;-69
2021/11/16 11:56:06;;;;;;;19.50;7.65;;;5.00;99.90;;;;;;4978136;28;20027;-68
2021/11/16 11:58:40;;;;;;;25.58;10.32;;;5.00;99.90;;;;;;4978284;28;20030;-68
2021/11/16 12:01:13;;;;;;;17.33;7.93;;;5.00;99.90;;;;;;4978654;28;20023;-68
2021/11/16 12:03:43;;;;;;;17.33;7.38;;;5.00;99.90;;;;;;4977881;28;20035;-69
2021/11/16 12:06:11;;;;;;;18.02;8.57;;;5.10;99.90;;;;;;4978537;28;20058;-69
2021/11/16 12:08:39;;;;;;;22.80;8.77;;;5.10;99.90;;;;;;4961058;28;20110;-69
2021/11/16 12:11:07;;;;;;;22.38;9.40;;;5.10;99.90;;;;;;4978004;28;20074;-71
2021/11/16 12:13:37;;;;;;;40.38;16.98;;;5.10;99.90;;;;;;4978685;28;20057;-70
2021/11/16 12:16:34;;;;;;;29.25;11.25;;;5.10;99.90;;;;;;4978730;28;20027;-70
2021/11/16 12:19:14;;;;;;;19.35;8.52;;;5.10;99.90;;;;;;4979019;28;20097;-68
2021/11/16 12:21:49;;;;;;;24.58;10.32;;;5.10;99.90;;;;;;4961328;28;20384;-68
2021/11/16 12:24:30;;;;;;;21.55;11.00;;;5.10;99.90;;;;;;4961511;28;20030;-68
2021/11/16 12:27:01;;;;;;;21.00;10.35;;;5.10;99.90;;;;;;4961596;28;20027;-69
2021/11/16 12:29:34;;;;;;;19.17;7.88;;;5.10;99.90;;;;;;4978732;28;20085;-69
2021/11/16 12:32:24;;;;;;;17.45;7.80;;;5.10;99.90;;;;;;4978458;28;20031;-68
2021/11/16 12:34:59;;;;;;;23.02;8.18;;;5.10;99.90;;;;;;4977797;28;20035;-68
2021/11/16 12:37:38;;;;;;;17.10;7.00;;;5.10;99.90;;;;;;4977665;28;20023;-67
2021/11/16 12:40:20;;;;;;;21.92;8.27;;;5.10;99.90;;;;;;4977909;28;20078;-68
2021/11/16 12:43:25;;;;;;;18.27;8.45;;;5.00;99.90;;;;;;4977610;28;20022;-68
2021/11/16 12:45:57;;;;;;;21.02;7.65;;;5.00;99.90;;;;;;4977422;28;20109;-67
2021/11/16 12:48:42;;;;;;;21.25;8.13;;;4.90;99.90;;;;;;4977457;28;20050;-68
2021/11/16 12:51:20;;;;;;;19.48;8.05;;;4.90;99.90;;;;;;4977338;28;20038;-67
2021/11/16 12:54:10;;;;;;;14.25;7.25;;;4.90;99.90;;;;;;4978171;28;20030;-68
2021/11/16 12:56:41;;;;;;;22.50;8.55;;;4.90;99.90;;;;;;4978464;28;20150;-68
2021/11/16 12:59:11;;;;;;;22.90;8.50;;;4.90;99.90;;;;;;4978748;28;20046;-68
2021/11/16 13:01:50;;;;;;;25.08;9.40;;;4.90;99.90;;;;;;4978382;28;20019;-69
2021/11/16 13:04:39;;;;;;;23.30;8.13;;;4.90;99.90;;;;;;4978234;28;20026;-68
2021/11/16 13:07:52;;;;;;;23.80;8.48;;;4.90;99.90;;;;;;4978167;28;20348;-68
2021/11/16 13:10:23;;;;;;;27.38;9.85;;;4.90;99.90;;;;;;4978457;28;20499;-68
2021/11/16 13:13:14;;;;;;;23.67;10.52;;;4.80;99.90;;;;;;4978263;28;20027;-68
2021/11/16 13:15:45;;;;;;;27.23;10.70;;;4.80;99.90;;;;;;4978002;28;20026;-69
2021/11/16 13:18:22;;;;;;;25.15;11.73;;;4.80;99.90;;;;;;4960298;28;20027;-69
2021/11/16 13:20:57;;;;;;;25.25;10.52;;;4.80;99.90;;;;;;4977424;28;20038;-68
2021/11/16 13:23:34;;;;;;;30.42;12.15;;;4.80;99.90;;;;;;4977557;28;20023;-68